Time;durP1;ratioP1;P1;durP2;ratioP2;P2;SDS_P1;SDS_P2;PMS_P1;PMS_P2;Temp;Humidity;BMP_temperature;BMP_pressure;BME280_temperature;BME280_humidity;BME280_pressure;Samples;Min_cycle;Max_cycle;Signal;HPM_P1;HPM_P2
2023/12/12 00:01:55;;;;;;;11.55;1.58;;;;;;;;;;4998886;28;20034;-61
2023/12/12 00:04:21;;;;;;;9.13;1.58;;;;;;;;;;4997938;28;20084;-61
2023/12/12 00:06:47;;;;;;;9.95;1.33;;;;;;;;;;4999184;28;20083;-61
2023/12/12 00:09:13;;;;;;;5.47;1.10;;;;;;;;;;4998344;28;20079;-61
2023/12/12 00:11:39;;;;;;;7.57;1.35;;;;;;;;;;4999181;28;20561;-61
2023/12/12 00:14:05;;;;;;;4.00;1.10;;;;;;;;;;4998355;28;20727;-61
2023/12/12 00:16:31;;;;;;;7.78;1.10;;;;;;;;;;4998828;28;20057;-61
2023/12/12 00:18:58;;;;;;;8.85;1.23;;;;;;;;;;4998033;28;20037;-61
2023/12/12 00:21:24;;;;;;;7.93;1.05;;;;;;;;;;4997736;28;20099;-61
2023/12/12 00:23:50;;;;;;;4.80;1.17;;;;;;;;;;4998598;28;20924;-61
2023/12/12 00:26:16;;;;;;;7.85;1.27;;;;;;;;;;4998889;28;20572;-61
2023/12/12 00:28:42;;;;;;;6.72;0.93;;;;;;;;;;4999292;28;20041;-61
2023/12/12 00:31:08;;;;;;;5.13;1.23;;;;;;;;;;4997876;28;20029;-61
2023/12/12 00:33:34;;;;;;;7.93;1.65;;;;;;;;;;4998081;28;20060;-61
2023/12/12 00:36:01;;;;;;;8.00;1.40;;;;;;;;;;4996163;28;20928;-61
2023/12/12 00:38:30;;;;;;;5.93;1.00;;;;;;;;;;4998358;28;20033;-61
2023/12/12 00:40:57;;;;;;;5.22;0.95;;;;;;;;;;4998178;28;20033;-61
2023/12/12 00:43:24;;;;;;;6.25;1.20;;;;;;;;;;4998100;28;20029;-61
2023/12/12 00:45:50;;;;;;;6.90;1.27;;;;;;;;;;4997619;28;20444;-61
2023/12/12 00:48:17;;;;;;;4.28;1.00;;;;;;;;;;4998207;28;20037;-61
2023/12/12 00:50:43;;;;;;;5.70;1.00;;;;;;;;;;4995940;28;20026;-61
2023/12/12 00:53:09;;;;;;;8.05;1.08;;;;;;;;;;4998914;28;20047;-61
2023/12/12 00:55:35;;;;;;;4.07;0.93;;;;;;;;;;4996409;28;20148;-61
2023/12/12 00:58:01;;;;;;;8.20;1.00;;;;;;;;;;4997652;28;20033;-61
2023/12/12 01:00:27;;;;;;;3.75;1.02;;;;;;;;;;4996847;28;20029;-61
2023/12/12 01:02:53;;;;;;;6.07;0.98;;;;;;;;;;4998300;28;20041;-61
2023/12/12 01:05:19;;;;;;;7.93;1.38;;;;;;;;;;4998239;28;20041;-61
2023/12/12 01:07:45;;;;;;;5.35;0.93;;;;;;;;;;4997924;28;20037;-61
2023/12/12 01:10:11;;;;;;;5.60;2.03;;;;;;;;;;4997749;28;20936;-61
2023/12/12 01:12:37;;;;;;;4.00;1.00;;;;;;;;;;4998757;28;20039;-61
2023/12/12 01:15:03;;;;;;;6.88;1.50;;;;;;;;;;4998510;28;20026;-61
2023/12/12 01:17:29;;;;;;;10.05;1.50;;;;;;;;;;4998762;28;20511;-61
2023/12/12 01:19:56;;;;;;;6.43;1.10;;;;;;;;;;4997907;28;20026;-61
2023/12/12 01:22:22;;;;;;;6.90;1.25;;;;;;;;;;4997567;28;20106;-61
2023/12/12 01:24:48;;;;;;;8.70;1.35;;;;;;;;;;4997579;28;20036;-61
2023/12/12 01:27:14;;;;;;;3.25;1.23;;;;;;;;;;4998513;28;20775;-61
2023/12/12 01:29:40;;;;;;;6.50;1.50;;;;;;;;;;4997222;28;20486;-61
2023/12/12 01:32:06;;;;;;;6.07;1.45;;;;;;;;;;4998258;28;20037;-61
2023/12/12 01:34:32;;;;;;;8.50;1.38;;;;;;;;;;4996346;28;20483;-61
2023/12/12 01:36:58;;;;;;;6.07;1.73;;;;;;;;;;4997225;28;20043;-61
2023/12/12 01:39:25;;;;;;;10.35;1.58;;;;;;;;;;5008528;28;20117;-61
2023/12/12 01:41:51;;;;;;;5.45;1.27;;;;;;;;;;4998092;28;20724;-61
2023/12/12 01:44:17;;;;;;;5.38;1.70;;;;;;;;;;4998497;28;20468;-61
2023/12/12 01:46:47;;;;;;;4.95;1.55;;;;;;;;;;4998126;28;21605;-61
2023/12/12 01:49:14;;;;;;;6.45;1.20;;;;;;;;;;5002827;28;20039;-61
2023/12/12 01:51:40;;;;;;;6.88;1.50;;;;;;;;;;5001288;28;20049;-61
2023/12/12 01:54:07;;;;;;;4.57;1.38;;;;;;;;;;5000196;28;20075;-61
2023/12/12 01:56:34;;;;;;;8.23;1.60;;;;;;;;;;5002085;28;20040;-61
2023/12/12 01:59:01;;;;;;;9.40;1.80;;;;;;;;;;5001635;28;20683;-61
2023/12/12 02:01:27;;;;;;;6.90;1.70;;;;;;;;;;5001407;28;20045;-61
2023/12/12 02:03:54;;;;;;;8.02;1.60;;;;;;;;;;5001282;28;20068;-61
2023/12/12 02:06:22;;;;;;;3.60;1.30;;;;;;;;;;5001269;28;20043;-61
2023/12/12 02:08:51;;;;;;;6.32;1.40;;;;;;;;;;5000890;28;20119;-61
2023/12/12 02:11:17;;;;;;;6.60;1.52;;;;;;;;;;5000318;28;20033;-61
2023/12/12 02:13:43;;;;;;;9.27;1.80;;;;;;;;;;4999317;28;20037;-61
2023/12/12 02:16:10;;;;;;;5.03;1.20;;;;;;;;;;5000004;28;20856;-61
2023/12/12 02:18:36;;;;;;;7.00;1.42;;;;;;;;;;4999861;28;20022;-61
2023/12/12 02:21:03;;;;;;;7.45;1.90;;;;;;;;;;5001051;28;21051;-61
2023/12/12 02:23:29;;;;;;;7.32;1.33;;;;;;;;;;5000270;28;20033;-61
2023/12/12 02:25:55;;;;;;;3.97;1.17;;;;;;;;;;4999780;28;20065;-60
2023/12/12 02:28:22;;;;;;;10.82;1.80;;;;;;;;;;5001498;28;21689;-61
2023/12/12 02:30:48;;;;;;;8.32;1.70;;;;;;;;;;5000572;28;20048;-61
2023/12/12 02:33:14;;;;;;;4.53;1.40;;;;;;;;;;5001821;28;21118;-61
2023/12/12 02:35:40;;;;;;;5.85;1.67;;;;;;;;;;4999877;28;20134;-61
2023/12/12 02:38:06;;;;;;;6.97;1.48;;;;;;;;;;5000915;28;20029;-61
2023/12/12 02:40:32;;;;;;;9.30;1.85;;;;;;;;;;5000709;28;21277;-61
2023/12/12 02:42:58;;;;;;;5.43;1.30;;;;;;;;;;5000470;28;20044;-61
2023/12/12 02:45:24;;;;;;;5.78;1.52;;;;;;;;;;5000668;28;20034;-61
2023/12/12 02:47:51;;;;;;;6.38;1.35;;;;;;;;;;5000079;28;20851;-61
2023/12/12 02:50:17;;;;;;;4.18;1.40;;;;;;;;;;5000508;28;20037;-61
2023/12/12 02:52:44;;;;;;;8.15;1.30;;;;;;;;;;4999549;28;20029;-61
2023/12/12 02:55:10;;;;;;;4.65;1.10;;;;;;;;;;4998703;28;20611;-61
2023/12/12 02:57:36;;;;;;;6.78;1.73;;;;;;;;;;5000596;28;20243;-60
2023/12/12 03:00:03;;;;;;;7.47;1.60;;;;;;;;;;4999397;28;20068;-61
2023/12/12 03:02:30;;;;;;;4.57;1.13;;;;;;;;;;4999418;28;20516;-61
2023/12/12 03:04:57;;;;;;;5.32;1.30;;;;;;;;;;4999765;28;20029;-60
2023/12/12 03:07:23;;;;;;;5.20;1.20;;;;;;;;;;4999617;28;20484;-61
2023/12/12 03:09:49;;;;;;;6.07;1.38;;;;;;;;;;5000305;28;21787;-61
2023/12/12 03:12:16;;;;;;;8.38;1.40;;;;;;;;;;5000365;28;20053;-60
2023/12/12 03:14:42;;;;;;;6.05;1.30;;;;;;;;;;4998469;28;20041;-61
2023/12/12 03:17:08;;;;;;;6.93;1.52;;;;;;;;;;5000136;28;20989;-61
2023/12/12 03:19:34;;;;;;;9.25;1.65;;;;;;;;;;4999553;28;20025;-61
2023/12/12 03:22:00;;;;;;;7.05;1.73;;;;;;;;;;5000929;28;21092;-61
2023/12/12 03:24:27;;;;;;;6.18;1.45;;;;;;;;;;4999675;28;20069;-60
2023/12/12 03:26:53;;;;;;;7.28;1.38;;;;;;;;;;5000104;28;20041;-61
2023/12/12 03:29:19;;;;;;;7.50;1.33;;;;;;;;;;4993172;28;20029;-61
2023/12/12 03:31:45;;;;;;;5.35;1.63;;;;;;;;;;4996101;28;20041;-61
2023/12/12 03:34:11;;;;;;;7.50;1.58;;;;;;;;;;4997625;28;20108;-61
2023/12/12 03:36:41;;;;;;;5.38;1.63;;;;;;;;;;4999764;28;20063;-61
2023/12/12 03:39:07;;;;;;;10.38;2.28;;;;;;;;;;4996964;28;20033;-60
2023/12/12 03:41:33;;;;;;;3.20;1.10;;;;;;;;;;4998016;28;20597;-61
2023/12/12 03:43:59;;;;;;;5.13;1.30;;;;;;;;;;4997467;28;20030;-61
2023/12/12 03:46:25;;;;;;;5.40;1.60;;;;;;;;;;4998610;28;20053;-61
2023/12/12 03:48:51;;;;;;;4.13;1.40;;;;;;;;;;4999307;28;20050;-61
2023/12/12 03:51:17;;;;;;;6.10;1.33;;;;;;;;;;4999237;28;20041;-61
2023/12/12 03:53:43;;;;;;;4.70;1.40;;;;;;;;;;4999968;28;20033;-61
2023/12/12 03:56:09;;;;;;;5.15;1.30;;;;;;;;;;4998751;28;20064;-61
2023/12/12 03:58:35;;;;;;;7.47;1.58;;;;;;;;;;4997722;28;20030;-61
2023/12/12 04:01:02;;;;;;;6.53;1.83;;;;;;;;;;4998288;28;20037;-61
2023/12/12 04:03:28;;;;;;;4.80;1.90;;;;;;;;;;4998798;28;20047;-60
2023/12/12 04:05:54;;;;;;;3.42;1.30;;;;;;;;;;4998798;28;21315;-61
2023/12/12 04:08:20;;;;;;;7.72;2.35;;;;;;;;;;4998084;28;20061;-61
2023/12/12 04:10:46;;;;;;;6.82;1.50;;;;;;;;;;4996698;28;20056;-61
2023/12/12 04:13:13;;;;;;;8.60;1.83;;;;;;;;;;4999210;28;20029;-61
2023/12/12 04:15:39;;;;;;;9.40;2.67;;;;;;;;;;4999135;28;20536;-61
2023/12/12 04:18:05;;;;;;;6.75;1.50;;;;;;;;;;4997500;28;20037;-60
2023/12/12 04:20:31;;;;;;;5.93;1.40;;;;;;;;;;4999588;28;21101;-60
2023/12/12 04:22:57;;;;;;;7.05;1.42;;;;;;;;;;4997187;28;20056;-60
2023/12/12 04:25:23;;;;;;;7.78;1.60;;;;;;;;;;4998269;28;20046;-61
2023/12/12 04:27:49;;;;;;;8.75;1.90;;;;;;;;;;4995949;28;20033;-61
2023/12/12 04:30:15;;;;;;;7.90;1.60;;;;;;;;;;4998244;28;20119;-61
2023/12/12 04:32:41;;;;;;;8.32;1.83;;;;;;;;;;4998638;28;20030;-61
2023/12/12 04:35:08;;;;;;;9.25;1.60;;;;;;;;;;4997677;28;20055;-61
2023/12/12 04:37:34;;;;;;;11.13;3.00;;;;;;;;;;4998317;28;20021;-61
2023/12/12 04:40:01;;;;;;;6.55;2.03;;;;;;;;;;4998008;28;20033;-61
2023/12/12 04:42:27;;;;;;;6.65;1.90;;;;;;;;;;4998308;28;20041;-61
2023/12/12 04:44:53;;;;;;;6.47;1.73;;;;;;;;;;4998030;28;20136;-61
2023/12/12 04:47:19;;;;;;;10.75;2.15;;;;;;;;;;4998376;28;20052;-61
2023/12/12 04:49:45;;;;;;;6.60;1.80;;;;;;;;;;4997183;28;20030;-61
2023/12/12 04:52:11;;;;;;;6.53;1.70;;;;;;;;;;4997921;28;20044;-61
2023/12/12 04:54:37;;;;;;;8.20;1.50;;;;;;;;;;4997099;28;20123;-60
2023/12/12 04:57:03;;;;;;;11.45;2.60;;;;;;;;;;4998613;28;20045;-61
2023/12/12 04:59:29;;;;;;;6.50;1.90;;;;;;;;;;4997280;28;20037;-61
2023/12/12 05:01:55;;;;;;;6.82;1.70;;;;;;;;;;4999023;28;20030;-60
2023/12/12 05:04:21;;;;;;;4.53;1.48;;;;;;;;;;4997334;28;20045;-60
2023/12/12 05:06:47;;;;;;;8.13;2.33;;;;;;;;;;4998782;28;20049;-61
2023/12/12 05:09:13;;;;;;;5.57;1.65;;;;;;;;;;4998052;28;20781;-60
2023/12/12 05:11:40;;;;;;;4.95;1.85;;;;;;;;;;4998105;28;20562;-61
2023/12/12 05:14:06;;;;;;;15.57;2.63;;;;;;;;;;4998303;28;20034;-60
2023/12/12 05:16:32;;;;;;;7.18;2.00;;;;;;;;;;4998701;28;20999;-61
2023/12/12 05:18:59;;;;;;;8.75;2.40;;;;;;;;;;4998849;28;20457;-61
2023/12/12 05:21:29;;;;;;;11.30;2.40;;;;;;;;;;4995999;28;21637;-61
2023/12/12 05:23:56;;;;;;;6.20;2.13;;;;;;;;;;5001704;28;20388;-61
2023/12/12 05:26:22;;;;;;;12.68;3.03;;;;;;;;;;5001778;28;20034;-60
2023/12/12 05:28:48;;;;;;;6.82;2.35;;;;;;;;;;5001791;28;20040;-61
2023/12/12 05:31:14;;;;;;;11.48;3.83;;;;;;;;;;5001698;28;20112;-61
2023/12/12 05:33:40;;;;;;;12.80;2.90;;;;;;;;;;5002345;28;20041;-60
2023/12/12 05:36:07;;;;;;;8.73;3.45;;;;;;;;;;5001069;28;20025;-61
2023/12/12 05:38:34;;;;;;;10.35;3.13;;;;;;;;;;5001500;28;20030;-61
2023/12/12 05:41:00;;;;;;;7.10;2.80;;;;;;;;;;5001391;28;20629;-60
2023/12/12 05:43:26;;;;;;;9.65;2.70;;;;;;;;;;5000799;28;20167;-61
2023/12/12 05:45:52;;;;;;;8.45;2.72;;;;;;;;;;5001210;28;20049;-60
2023/12/12 05:48:18;;;;;;;8.90;2.80;;;;;;;;;;5001368;28;20132;-61
2023/12/12 05:50:44;;;;;;;8.15;2.80;;;;;;;;;;5001712;28;20061;-61
2023/12/12 05:53:10;;;;;;;11.82;3.30;;;;;;;;;;5001017;28;20029;-60
2023/12/12 05:55:36;;;;;;;6.43;3.28;;;;;;;;;;5001596;28;21161;-61
2023/12/12 05:58:04;;;;;;;9.55;3.15;;;;;;;;;;4999707;28;20033;-61
2023/12/12 06:00:31;;;;;;;15.88;4.07;;;;;;;;;;5000441;28;20488;-61
2023/12/12 06:02:58;;;;;;;12.02;3.55;;;;;;;;;;4982214;28;20194;-61
2023/12/12 06:05:24;;;;;;;10.30;3.55;;;;;;;;;;4999170;28;20045;-61
2023/12/12 06:07:51;;;;;;;9.50;3.30;;;;;;;;;;4999446;28;20083;-61
2023/12/12 06:10:18;;;;;;;10.00;3.67;;;;;;;;;;5000531;28;20029;-61
2023/12/12 06:12:45;;;;;;;14.70;4.03;;;;;;;;;;4999067;28;20141;-61
2023/12/12 06:15:11;;;;;;;12.43;3.58;;;;;;;;;;4999885;28;21107;-61
2023/12/12 06:17:38;;;;;;;11.90;4.15;;;;;;;;;;5000983;28;20032;-61
2023/12/12 06:20:04;;;;;;;11.88;4.70;;;;;;;;;;4997892;28;20033;-60
2023/12/12 06:22:31;;;;;;;15.38;3.63;;;;;;;;;;4997983;28;20132;-61
2023/12/12 06:24:57;;;;;;;11.88;4.00;;;;;;;;;;4997839;28;20030;-60
2023/12/12 06:27:23;;;;;;;16.13;4.10;;;;;;;;;;5000152;28;20895;-60
2023/12/12 06:29:49;;;;;;;13.05;4.07;;;;;;;;;;4998754;28;20021;-60
2023/12/12 06:32:16;;;;;;;14.02;3.88;;;;;;;;;;4999268;28;20805;-61
2023/12/12 06:34:45;;;;;;;11.00;4.20;;;;;;;;;;4998008;28;20129;-61
2023/12/12 06:37:11;;;;;;;9.95;3.92;;;;;;;;;;4999735;28;20484;-61
2023/12/12 06:39:37;;;;;;;13.02;4.72;;;;;;;;;;4997631;28;20045;-60
2023/12/12 06:42:04;;;;;;;11.95;4.82;;;;;;;;;;4998454;28;20038;-61
2023/12/12 06:44:30;;;;;;;13.70;4.53;;;;;;;;;;5011440;28;20391;-60
2023/12/12 06:46:56;;;;;;;14.07;5.25;;;;;;;;;;4999811;28;20053;-61
2023/12/12 06:49:23;;;;;;;17.65;5.53;;;;;;;;;;4999901;28;20121;-61
2023/12/12 06:51:49;;;;;;;15.60;5.40;;;;;;;;;;5000551;28;20037;-60
2023/12/12 06:54:15;;;;;;;13.32;5.47;;;;;;;;;;4999439;28;20032;-61
2023/12/12 06:56:41;;;;;;;16.15;5.55;;;;;;;;;;4999051;28;20123;-61
2023/12/12 06:59:08;;;;;;;17.52;5.93;;;;;;;;;;5000595;28;20393;-61
2023/12/12 07:01:34;;;;;;;16.83;6.22;;;;;;;;;;4999176;28;20083;-60
2023/12/12 07:04:00;;;;;;;14.73;5.90;;;;;;;;;;5000081;28;20037;-61
2023/12/12 07:06:27;;;;;;;16.50;6.10;;;;;;;;;;5000245;28;20045;-61
2023/12/12 07:08:53;;;;;;;15.13;6.30;;;;;;;;;;4999911;28;20071;-61
2023/12/12 07:11:19;;;;;;;11.95;6.45;;;;;;;;;;4999117;28;20481;-61
2023/12/12 07:13:45;;;;;;;16.40;9.18;;;;;;;;;;4999395;28;20144;-61
2023/12/12 07:16:11;;;;;;;19.83;8.90;;;;;;;;;;5000179;28;20037;-60
2023/12/12 07:18:38;;;;;;;22.48;7.47;;;;;;;;;;4999620;28;20432;-61
2023/12/12 07:21:04;;;;;;;14.65;6.72;;;;;;;;;;4999967;28;20045;-61
2023/12/12 07:23:30;;;;;;;36.70;7.53;;;;;;;;;;4996168;28;20049;-61
2023/12/12 07:25:56;;;;;;;26.70;8.35;;;;;;;;;;4993565;28;20038;-61
2023/12/12 07:28:23;;;;;;;15.00;6.70;;;;;;;;;;4996880;28;20025;-61
2023/12/12 07:30:49;;;;;;;21.08;6.88;;;;;;;;;;4998816;28;20701;-61
2023/12/12 07:33:15;;;;;;;44.40;7.95;;;;;;;;;;4997881;28;20039;-60
2023/12/12 07:35:41;;;;;;;27.15;10.27;;;;;;;;;;4998711;28;20041;-61
2023/12/12 07:38:07;;;;;;;67.78;9.65;;;;;;;;;;4998943;28;20033;-61
2023/12/12 07:40:33;;;;;;;94.47;8.77;;;;;;;;;;4998955;28;20033;-61
2023/12/12 07:43:00;;;;;;;90.35;11.30;;;;;;;;;;4998147;28;20044;-61
2023/12/12 07:45:26;;;;;;;96.60;9.30;;;;;;;;;;4997659;28;20104;-60
2023/12/12 07:47:52;;;;;;;188.60;12.30;;;;;;;;;;4998129;28;20775;-61
2023/12/12 07:50:18;;;;;;;127.97;9.95;;;;;;;;;;4997943;28;20026;-61
2023/12/12 07:52:47;;;;;;;155.95;11.07;;;;;;;;;;4998002;28;20209;-60
2023/12/12 07:55:13;;;;;;;122.10;10.35;;;;;;;;;;4998219;28;20032;-60
2023/12/12 07:57:39;;;;;;;81.90;10.07;;;;;;;;;;4997941;28;20149;-60
2023/12/12 08:00:06;;;;;;;118.18;9.85;;;;;;;;;;4998955;28;20053;-61
2023/12/12 08:02:32;;;;;;;175.48;11.63;;;;;;;;;;4998064;28;20045;-61
2023/12/12 08:04:59;;;;;;;206.32;12.80;;;;;;;;;;4998127;28;20057;-60
2023/12/12 08:07:25;;;;;;;125.80;10.38;;;;;;;;;;4997992;28;20026;-61
2023/12/12 08:09:51;;;;;;;165.38;11.70;;;;;;;;;;4998280;28;20045;-61
2023/12/12 08:12:17;;;;;;;174.88;12.10;;;;;;;;;;4997498;28;21800;-61
2023/12/12 08:14:44;;;;;;;146.50;11.07;;;;;;;;;;4997870;28;20148;-61
2023/12/12 08:17:10;;;;;;;135.75;12.25;;;;;;;;;;4997869;28;20869;-61
2023/12/12 08:19:36;;;;;;;111.88;10.27;;;;;;;;;;4998313;28;20034;-61
2023/12/12 08:22:02;;;;;;;121.85;11.30;;;;;;;;;;4997454;28;20030;-61
2023/12/12 08:24:28;;;;;;;81.10;9.68;;;;;;;;;;4997933;28;20052;-61
2023/12/12 08:26:54;;;;;;;110.25;10.50;;;;;;;;;;4997905;28;20869;-62
2023/12/12 08:29:20;;;;;;;74.90;9.85;;;;;;;;;;4994517;28;20128;-61
2023/12/12 08:31:46;;;;;;;80.78;10.43;;;;;;;;;;4994998;28;20018;-61
2023/12/12 08:34:12;;;;;;;33.30;8.25;;;;;;;;;;4994768;28;20084;-61
2023/12/12 08:36:38;;;;;;;30.95;9.63;;;;;;;;;;4995253;28;20026;-61
2023/12/12 08:39:05;;;;;;;27.20;8.60;;;;;;;;;;4995912;28;21127;-61
2023/12/12 08:41:31;;;;;;;26.77;7.75;;;;;;;;;;4995541;28;20075;-61
2023/12/12 08:44:00;;;;;;;39.90;8.75;;;;;;;;;;4995485;28;20038;-61
2023/12/12 08:46:27;;;;;;;25.63;8.05;;;;;;;;;;4997291;28;20049;-61
2023/12/12 08:48:59;;;;;;;45.90;10.57;;;;;;;;;;4998381;28;20036;-61
2023/12/12 08:51:30;;;;;;;25.00;9.43;;;;;;;;;;4995631;28;20857;-61
2023/12/12 08:53:58;;;;;;;69.22;11.23;;;;;;;;;;4998042;28;20737;-61
2023/12/12 08:56:25;;;;;;;28.27;8.25;;;;;;;;;;4997551;28;20039;-61
2023/12/12 08:58:51;;;;;;;24.02;9.57;;;;;;;;;;4997486;28;20038;-61
2023/12/12 09:01:18;;;;;;;75.97;11.77;;;;;;;;;;4997544;28;20634;-61
2023/12/12 09:03:44;;;;;;;27.63;10.82;;;;;;;;;;4997879;28;20052;-61
2023/12/12 09:06:11;;;;;;;49.35;11.23;;;;;;;;;;4996232;28;20034;-61
2023/12/12 09:08:37;;;;;;;104.38;12.15;;;;;;;;;;4998212;28;20753;-61
2023/12/12 09:11:03;;;;;;;75.97;11.90;;;;;;;;;;4996349;28;20037;-61
2023/12/12 09:13:29;;;;;;;53.78;10.60;;;;;;;;;;4997465;28;20034;-61
2023/12/12 09:15:55;;;;;;;96.55;11.65;;;;;;;;;;4997463;28;20060;-61
2023/12/12 09:18:21;;;;;;;57.22;9.95;;;;;;;;;;4997516;28;20040;-61
2023/12/12 09:20:47;;;;;;;69.68;10.25;;;;;;;;;;4997123;28;20034;-61
2023/12/12 09:23:14;;;;;;;172.18;16.67;;;;;;;;;;4996793;28;20042;-61
2023/12/12 09:25:40;;;;;;;108.05;12.98;;;;;;;;;;4996910;28;20580;-61
2023/12/12 09:28:07;;;;;;;33.78;10.38;;;;;;;;;;4998079;28;20037;-61
2023/12/12 09:30:33;;;;;;;76.50;12.55;;;;;;;;;;4998653;28;20025;-61
2023/12/12 09:32:59;;;;;;;42.75;10.73;;;;;;;;;;4997884;28;20056;-61
2023/12/12 09:35:25;;;;;;;56.35;12.25;;;;;;;;;;4997157;28;20041;-61
2023/12/12 09:37:51;;;;;;;55.47;10.05;;;;;;;;;;4997315;28;20034;-61
2023/12/12 09:40:18;;;;;;;55.78;10.90;;;;;;;;;;4996916;28;20037;-61
2023/12/12 09:42:47;;;;;;;59.63;11.38;;;;;;;;;;4997373;28;20129;-62
2023/12/12 09:45:14;;;;;;;39.65;9.82;;;;;;;;;;5012083;28;20400;-61
2023/12/12 09:47:42;;;;;;;59.15;10.57;;;;;;;;;;4997296;28;20141;-61
2023/12/12 09:50:10;;;;;;;52.67;11.05;;;;;;;;;;4997367;28;20032;-61
2023/12/12 09:52:36;;;;;;;55.40;10.82;;;;;;;;;;4997209;28;20128;-61
2023/12/12 09:55:03;;;;;;;46.90;10.90;;;;;;;;;;4997781;28;20385;-61
2023/12/12 09:57:30;;;;;;;65.72;11.10;;;;;;;;;;4997730;28;20053;-61
2023/12/12 09:59:56;;;;;;;52.00;11.48;;;;;;;;;;4996266;28;20033;-61
2023/12/12 10:02:24;;;;;;;58.88;11.50;;;;;;;;;;4996447;28;20091;-61
2023/12/12 10:04:54;;;;;;;133.77;15.00;;;;;;;;;;4996455;28;21168;-61
2023/12/12 10:07:20;;;;;;;76.90;12.55;;;;;;;;;;4997907;28;20505;-61
2023/12/12 10:09:48;;;;;;;68.85;12.80;;;;;;;;;;5000513;28;20037;-61
2023/12/12 10:12:14;;;;;;;57.30;12.27;;;;;;;;;;5014662;28;20026;-61
2023/12/12 10:14:41;;;;;;;31.42;11.30;;;;;;;;;;5000310;28;21944;-61
2023/12/12 10:17:10;;;;;;;55.38;11.35;;;;;;;;;;5000594;28;20037;-61
2023/12/12 10:19:37;;;;;;;65.50;12.25;;;;;;;;;;5000228;28;20133;-61
2023/12/12 10:22:09;;;;;;;51.40;10.93;;;;;;;;;;5000721;28;20039;-61
2023/12/12 10:24:36;;;;;;;65.30;11.63;;;;;;;;;;4999413;28;20034;-61
2023/12/12 10:27:03;;;;;;;59.55;12.02;;;;;;;;;;5000640;28;20482;-61
2023/12/12 10:29:31;;;;;;;67.13;11.70;;;;;;;;;;5000352;28;20037;-61
2023/12/12 10:32:02;;;;;;;58.28;11.98;;;;;;;;;;5000151;28;20026;-61
2023/12/12 10:34:28;;;;;;;52.55;10.80;;;;;;;;;;5000740;28;20037;-61
2023/12/12 10:36:55;;;;;;;82.35;13.07;;;;;;;;;;5000956;28;20033;-61
2023/12/12 10:39:21;;;;;;;98.82;13.23;;;;;;;;;;5000056;28;20651;-61
2023/12/12 10:41:57;;;;;;;60.35;11.85;;;;;;;;;;4999584;28;20083;-61
2023/12/12 10:44:31;;;;;;;40.83;10.90;;;;;;;;;;4999874;28;20059;-61
2023/12/12 10:46:59;;;;;;;72.80;11.98;;;;;;;;;;4999370;28;20064;-61
2023/12/12 10:49:28;;;;;;;53.22;11.73;;;;;;;;;;4999082;28;20068;-61
2023/12/12 10:51:55;;;;;;;54.47;11.57;;;;;;;;;;5000044;28;20768;-61
2023/12/12 10:54:24;;;;;;;94.88;13.15;;;;;;;;;;4999410;28;20026;-61
2023/12/12 10:56:50;;;;;;;58.35;11.68;;;;;;;;;;5000033;28;20045;-61
2023/12/12 10:59:17;;;;;;;96.18;13.55;;;;;;;;;;4999430;28;21086;-62
2023/12/12 11:01:47;;;;;;;72.70;12.52;;;;;;;;;;4999446;28;20030;-61
2023/12/12 11:04:14;;;;;;;55.88;12.50;;;;;;;;;;4999597;28;20033;-61
2023/12/12 11:06:43;;;;;;;53.03;12.23;;;;;;;;;;4999507;28;20029;-61
2023/12/12 11:09:09;;;;;;;40.80;11.15;;;;;;;;;;4999586;28;20038;-61
2023/12/12 11:11:37;;;;;;;77.70;15.50;;;;;;;;;;4998898;28;20049;-61
2023/12/12 11:14:03;;;;;;;139.32;15.45;;;;;;;;;;4999425;28;20056;-61
2023/12/12 11:16:30;;;;;;;25.77;10.52;;;;;;;;;;4998503;28;20037;-61
2023/12/12 11:18:57;;;;;;;38.70;12.10;;;;;;;;;;4999071;28;20036;-61
2023/12/12 11:21:43;;;;;;;79.68;12.48;;;;;;;;;;4997800;28;20033;-61
2023/12/12 11:24:09;;;;;;;19.27;10.40;;;;;;;;;;4999895;28;20537;-61
2023/12/12 11:26:37;;;;;;;24.00;10.80;;;;;;;;;;4998209;28;20146;-61
2023/12/12 11:29:06;;;;;;;25.30;9.90;;;;;;;;;;4999026;28;20025;-61
2023/12/12 11:31:34;;;;;;;29.23;10.55;;;;;;;;;;4998995;28;20108;-61
2023/12/12 11:34:03;;;;;;;33.53;10.82;;;;;;;;;;4998191;28;20033;-61
2023/12/12 11:36:29;;;;;;;15.75;10.32;;;;;;;;;;4996817;28;20095;-61
2023/12/12 11:38:55;;;;;;;18.77;10.32;;;;;;;;;;4996850;28;20041;-61
2023/12/12 11:41:21;;;;;;;17.75;10.80;;;;;;;;;;4997232;28;20080;-61
2023/12/12 11:43:47;;;;;;;14.48;9.15;;;;;;;;;;5012746;28;20034;-61
2023/12/12 11:46:18;;;;;;;15.18;9.93;;;;;;;;;;4997240;28;20041;-61
2023/12/12 11:48:44;;;;;;;15.52;10.38;;;;;;;;;;4998652;28;20111;-61
2023/12/12 11:51:29;;;;;;;15.38;10.25;;;;;;;;;;4998315;28;20034;-61
2023/12/12 11:53:56;;;;;;;16.75;10.88;;;;;;;;;;5014918;28;20777;-61
2023/12/12 11:56:22;;;;;;;15.80;11.10;;;;;;;;;;4999028;28;20131;-61
2023/12/12 11:58:51;;;;;;;15.93;11.27;;;;;;;;;;4998672;28;20026;-61
2023/12/12 12:01:25;;;;;;;15.25;10.77;;;;;;;;;;4998081;28;20117;-61
2023/12/12 12:03:52;;;;;;;16.73;11.35;;;;;;;;;;4997905;28;20029;-61
2023/12/12 12:06:18;;;;;;;16.80;11.85;;;;;;;;;;4998988;28;20166;-61
2023/12/12 12:08:44;;;;;;;17.08;12.73;;;;;;;;;;4999070;28;20025;-61
2023/12/12 12:11:11;;;;;;;16.85;11.98;;;;;;;;;;4998161;28;20041;-61
2023/12/12 12:13:46;;;;;;;16.67;12.48;;;;;;;;;;4999053;28;20121;-61
2023/12/12 12:16:15;;;;;;;19.77;13.43;;;;;;;;;;4998907;28;20033;-61
2023/12/12 12:18:42;;;;;;;21.63;14.65;;;;;;;;;;4997847;28;20025;-61
2023/12/12 12:21:08;;;;;;;20.02;13.90;;;;;;;;;;5014223;28;20153;-61
2023/12/12 12:23:38;;;;;;;20.42;14.95;;;;;;;;;;4998526;28;20037;-61
2023/12/12 12:26:04;;;;;;;22.30;16.00;;;;;;;;;;4998282;28;20045;-61
2023/12/12 12:28:34;;;;;;;24.63;16.08;;;;;;;;;;4999233;28;20049;-61
2023/12/12 12:31:00;;;;;;;22.08;15.77;;;;;;;;;;4999000;28;21120;-61
2023/12/12 12:33:32;;;;;;;20.33;15.50;;;;;;;;;;4997826;28;20025;-62
2023/12/12 12:35:58;;;;;;;25.25;16.45;;;;;;;;;;4998446;28;20742;-61
2023/12/12 12:38:25;;;;;;;22.77;16.80;;;;;;;;;;4997836;28;20035;-61
2023/12/12 12:40:52;;;;;;;25.25;17.65;;;;;;;;;;4998403;28;20108;-61
2023/12/12 12:43:18;;;;;;;29.50;17.50;;;;;;;;;;4998245;28;20033;-61
2023/12/12 12:45:45;;;;;;;31.48;19.67;;;;;;;;;;4998524;28;20033;-61
2023/12/12 12:48:11;;;;;;;25.77;18.08;;;;;;;;;;4998566;28;20045;-61
2023/12/12 12:50:44;;;;;;;27.52;19.25;;;;;;;;;;4997931;28;20034;-61
2023/12/12 12:53:10;;;;;;;28.05;18.42;;;;;;;;;;4998287;28;20095;-61
2023/12/12 12:55:38;;;;;;;28.20;18.13;;;;;;;;;;4997685;28;20048;-61
2023/12/12 12:58:04;;;;;;;27.77;18.85;;;;;;;;;;4998463;28;20061;-61
2023/12/12 13:00:30;;;;;;;25.75;18.30;;;;;;;;;;4997804;28;20480;-61
2023/12/12 13:02:57;;;;;;;29.35;19.30;;;;;;;;;;4998450;28;20496;-61
2023/12/12 13:05:25;;;;;;;29.13;19.17;;;;;;;;;;4994837;28;20026;-61
2023/12/12 13:07:51;;;;;;;28.00;18.00;;;;;;;;;;4997513;28;20014;-61
2023/12/12 13:10:17;;;;;;;26.13;17.30;;;;;;;;;;4997636;28;20191;-61
2023/12/12 13:12:44;;;;;;;23.58;16.02;;;;;;;;;;4996634;28;20059;-61
2023/12/12 13:15:10;;;;;;;26.75;16.00;;;;;;;;;;4997261;28;20026;-61
2023/12/12 13:17:37;;;;;;;22.77;16.23;;;;;;;;;;4995951;28;20038;-61
2023/12/12 13:20:09;;;;;;;23.33;16.10;;;;;;;;;;4996860;28;20607;-61
2023/12/12 13:22:44;;;;;;;25.88;15.80;;;;;;;;;;4998179;28;20672;-61
2023/12/12 13:25:11;;;;;;;26.05;16.02;;;;;;;;;;4998257;28;21440;-61
2023/12/12 13:27:38;;;;;;;23.23;15.27;;;;;;;;;;4997124;28;20026;-61
2023/12/12 13:30:09;;;;;;;20.67;14.70;;;;;;;;;;4997514;28;20940;-61
2023/12/12 13:32:36;;;;;;;19.15;13.80;;;;;;;;;;4997049;28;20033;-61
2023/12/12 13:35:02;;;;;;;20.55;14.63;;;;;;;;;;4992436;28;20040;-61
2023/12/12 13:37:29;;;;;;;21.77;14.88;;;;;;;;;;4997467;28;20540;-61
2023/12/12 13:39:55;;;;;;;22.30;15.55;;;;;;;;;;4997923;28;20053;-61
2023/12/12 13:42:22;;;;;;;19.55;14.25;;;;;;;;;;4998178;28;20038;-61
2023/12/12 13:44:48;;;;;;;21.05;14.63;;;;;;;;;;5000430;28;20181;-61
2023/12/12 13:47:15;;;;;;;22.00;14.63;;;;;;;;;;5000122;28;20056;-61
2023/12/12 13:49:41;;;;;;;21.75;15.45;;;;;;;;;;5001093;28;20297;-61
2023/12/12 13:52:07;;;;;;;22.15;15.73;;;;;;;;;;5000818;28;20069;-61
2023/12/12 13:54:33;;;;;;;23.02;15.48;;;;;;;;;;5000643;28;20029;-61
2023/12/12 13:56:59;;;;;;;24.73;16.35;;;;;;;;;;5001419;28;20017;-61
2023/12/12 13:59:25;;;;;;;27.27;16.75;;;;;;;;;;5001017;28;20626;-61
2023/12/12 14:01:51;;;;;;;27.88;17.45;;;;;;;;;;5000866;28;20073;-61
2023/12/12 14:04:18;;;;;;;35.03;17.55;;;;;;;;;;4999032;28;20065;-61
2023/12/12 14:06:44;;;;;;;25.95;16.55;;;;;;;;;;5000515;28;20037;-61
2023/12/12 14:09:11;;;;;;;23.65;16.65;;;;;;;;;;5014626;28;20515;-61
2023/12/12 14:11:37;;;;;;;30.27;17.70;;;;;;;;;;5002011;28;20074;-61
2023/12/12 14:14:03;;;;;;;30.52;18.48;;;;;;;;;;5001858;28;20140;-61
2023/12/12 14:16:30;;;;;;;29.05;19.35;;;;;;;;;;5001559;28;20033;-61
2023/12/12 14:18:56;;;;;;;32.03;19.40;;;;;;;;;;5000826;28;20075;-61
2023/12/12 14:21:22;;;;;;;28.65;19.48;;;;;;;;;;5000246;28;20048;-61
2023/12/12 14:23:48;;;;;;;33.45;20.73;;;;;;;;;;5001841;28;20033;-61
2023/12/12 14:26:16;;;;;;;34.35;20.15;;;;;;;;;;5001747;28;20493;-61